Time;durP1;ratioP1;P1;durP2;ratioP2;P2;SDS_P1;SDS_P2;PMS_P1;PMS_P2;Temp;Humidity;BMP_temperature;BMP_pressure;BME280_temperature;BME280_humidity;BME280_pressure;Samples;Min_cycle;Max_cycle;Signal;HPM_P1;HPM_P2
2022/12/22 03:25:56;;;;;;;;;;;;;;;;;;5019537;28;19929;-59
2022/12/22 03:28:22;;;;;;;;;;;;;;;;;;5012176;28;19932;-57
2022/12/22 03:30:48;;;;;;;;;;;;;;;;;;5018586;28;19925;-59
2022/12/22 03:33:14;;;;;;;;;;;;;;;;;;5026435;28;20278;-58
2022/12/22 03:35:40;;;;;;;;;;;;;;;;;;5026503;28;19976;-57
2022/12/22 03:38:06;;;;;;;;;;;;;;;;;;5010180;28;19992;-59
2022/12/22 03:40:32;;;;;;;;;;;;;;;;;;5006937;28;20530;-59
2022/12/22 03:48:28;;;;;;;;;;;;;;;;;;5016267;28;20444;-56
2022/12/22 03:50:54;;;;;;;;;;;;;;;;;;5007362;28;19933;-59
2022/12/22 03:53:20;;;;;;;;;;;;;;;;;;5006993;28;19933;-55
2022/12/22 03:55:46;;;;;;;;;;;;;;;;;;5010949;28;19925;-58
2022/12/22 03:58:12;;;;;;;;;;;;;;;;;;5011848;28;19929;-56
2022/12/22 04:00:38;;;;;;;;;;;;;;;;;;5015391;28;19948;-59
2022/12/22 04:03:04;;;;;;;;;;;;;;;;;;5006365;28;19929;-59
2022/12/22 04:05:30;;;;;;;;;;;;;;;;;;5007157;28;19926;-57
2022/12/22 04:07:56;;;;;;;;;;;;;;;;;;5012472;28;19944;-59
2022/12/22 04:13:07;;;;;;;;;;;;;;;;;;5008177;28;19929;-58
2022/12/22 04:15:33;;;;;;;;;;;;;;;;;;5018311;28;19930;-57
2022/12/22 04:17:59;;;;;;;;;;;;;;;;;;5025960;28;19975;-58
2022/12/22 04:20:25;;;;;;;;;;;;;;;;;;5025975;28;20294;-57
2022/12/22 04:22:51;;;;;;;;;;;;;;;;;;5010309;28;19925;-55
2022/12/22 04:25:17;;;;;;;;;;;;;;;;;;5008264;28;19933;-59
2022/12/22 04:27:43;;;;;;;;;;;;;;;;;;5006586;28;20314;-54
2022/12/22 04:30:09;;;;;;;;;;;;;;;;;;5015419;28;19971;-57
2022/12/22 04:32:35;;;;;;;;;;;;;;;;;;5024798;28;19928;-58
2022/12/22 04:35:01;;;;;;;;;;;;;;;;;;5019109;28;20300;-59
2022/12/22 04:37:27;;;;;;;;;;;;;;;;;;5010296;28;20485;-57
2022/12/22 04:39:53;;;;;;;;;;;;;;;;;;5005717;28;19979;-57
2022/12/22 04:42:19;;;;;;;;;;;;;;;;;;5007271;28;20040;-59
2022/12/22 04:44:45;;;;;;;;;;;;;;;;;;5007948;28;20028;-58
2022/12/22 04:47:11;;;;;;;;;;;;;;;;;;5007093;28;20325;-59
2022/12/22 04:49:37;;;;;;;;;;;;;;;;;;5015553;28;19949;-58
2022/12/22 04:52:03;;;;;;;;;;;;;;;;;;5001238;28;19936;-55
2022/12/22 04:54:29;;;;;;;;;;;;;;;;;;5012174;28;20059;-59
2022/12/22 04:56:55;;;;;;;;;;;;;;;;;;5009750;28;20016;-59
2022/12/22 04:59:21;;;;;;;;;;;;;;;;;;5003041;28;20378;-56
2022/12/22 05:01:47;;;;;;;;;;;;;;;;;;5006272;28;19932;-58
2022/12/22 05:04:13;;;;;;;;;;;;;;;;;;5010704;28;19925;-57
2022/12/22 05:06:39;;;;;;;;;;;;;;;;;;5023241;28;20422;-59
2022/12/22 05:09:05;;;;;;;;;;;;;;;;;;5024257;28;19932;-57
2022/12/22 05:11:31;;;;;;;;;;;;;;;;;;5011862;28;19937;-56
2022/12/22 05:13:57;;;;;;;;;;;;;;;;;;5006820;28;20541;-59
2022/12/22 05:16:23;;;;;;;;;;;;;;;;;;5009248;28;19925;-59
2022/12/22 05:18:49;;;;;;;;;;;;;;;;;;5023879;28;19929;-58
2022/12/22 05:21:15;;;;;;;;;;;;;;;;;;5023612;28;19948;-58
2022/12/22 05:23:41;;;;;;;;;;;;;;;;;;5009569;28;19947;-56
2022/12/22 05:26:07;;;;;;;;;;;;;;;;;;5006298;28;20417;-59
2022/12/22 05:28:33;;;;;;;;;;;;;;;;;;5005566;28;20012;-59
2022/12/22 05:30:59;;;;;;;;;;;;;;;;;;5017577;28;20020;-58
2022/12/22 05:33:25;;;;;;;;;;;;;;;;;;5023304;28;20012;-59
2022/12/22 05:35:51;;;;;;;;;;;;;;;;;;5023855;28;20361;-56
2022/12/22 05:38:17;;;;;;;;;;;;;;;;;;5006679;28;19926;-58
2022/12/22 05:40:43;;;;;;;;;;;;;;;;;;5016949;28;20353;-58
2022/12/22 05:43:09;;;;;;;;;;;;;;;;;;5021544;28;20461;-59
2022/12/22 05:45:35;;;;;;;;;;;;;;;;;;5003370;28;19997;-59
2022/12/22 05:48:01;;;;;;;;;;;;;;;;;;5005048;28;20012;-57
2022/12/22 05:50:27;;;;;;;;;;;;;;;;;;5005620;28;20386;-60
2022/12/22 05:52:53;;;;;;;;;;;;;;;;;;5012594;28;19933;-60
2022/12/22 05:55:19;;;;;;;;;;;;;;;;;;5018352;28;19936;-59
2022/12/22 05:57:45;;;;;;;;;;;;;;;;;;5016804;28;20314;-59
2022/12/22 06:00:11;;;;;;;;;;;;;;;;;;5005074;28;19941;-59
2022/12/22 06:02:37;;;;;;;;;;;;;;;;;;5004779;28;19929;-57
2022/12/22 06:05:03;;;;;;;;;;;;;;;;;;5002363;28;19944;-59
2022/12/22 06:07:29;;;;;;;;;;;;;;;;;;5002889;28;20513;-54
2022/12/22 06:09:55;;;;;;;;;;;;;;;;;;5011887;28;19941;-57
2022/12/22 06:12:21;;;;;;;;;;;;;;;;;;5013910;28;19925;-58
2022/12/22 06:14:47;;;;;;;;;;;;;;;;;;5007912;28;20370;-58
2022/12/22 06:17:13;;;;;;;;;;;;;;;;;;5010060;28;20446;-57
2022/12/22 06:19:39;;;;;;;;;;;;;;;;;;5013739;28;19926;-58
2022/12/22 06:22:05;;;;;;;;;;;;;;;;;;5008101;28;19926;-58
2022/12/22 06:24:31;;;;;;;;;;;;;;;;;;5011261;28;20310;-58
2022/12/22 06:26:57;;;;;;;;;;;;;;;;;;5005191;28;19933;-58
2022/12/22 06:29:23;;;;;;;;;;;;;;;;;;5007724;28;19941;-58
2022/12/22 06:31:49;;;;;;;;;;;;;;;;;;5006906;28;19929;-57
2022/12/22 06:34:16;;;;;;;;;;;;;;;;;;5005640;28;19926;-58
2022/12/22 06:36:42;;;;;;;;;;;;;;;;;;5009598;28;20428;-58
2022/12/22 06:39:08;;;;;;;;;;;;;;;;;;5005332;28;19929;-58
2022/12/22 06:44:19;;;;;;;;;;;;;;;;;;5007236;28;19984;-58
2022/12/22 06:46:45;;;;;;;;;;;;;;;;;;5001825;28;19921;-59
2022/12/22 06:49:11;;;;;;;;;;;;;;;;;;5002998;28;19926;-58
2022/12/22 06:51:37;;;;;;;;;;;;;;;;;;5005151;28;20363;-60
2022/12/22 06:54:03;;;;;;;;;;;;;;;;;;5014712;28;20416;-61
2022/12/22 06:56:29;;;;;;;;;;;;;;;;;;5010612;28;19937;-59
2022/12/22 06:58:55;;;;;;;;;;;;;;;;;;5026798;28;19921;-57
2022/12/22 07:01:21;;;;;;;;;;;;;;;;;;5028111;28;20428;-61
2022/12/22 07:03:47;;;;;;;;;;;;;;;;;;5021995;28;19984;-61
2022/12/22 07:06:13;;;;;;;;;;;;;;;;;;5020197;28;20016;-58
2022/12/22 07:08:39;;;;;;;;;;;;;;;;;;5023113;28;20288;-57
2022/12/22 07:11:05;;;;;;;;;;;;;;;;;;5004050;28;20047;-63
2022/12/22 07:13:32;;;;;;;;;;;;;;;;;;4988326;28;20042;-59
2022/12/22 07:15:58;;;;;;;;;;;;;;;;;;4988562;28;19965;-55
2022/12/22 07:18:24;;;;;;;;;;;;;;;;;;4988132;28;19933;-63
2022/12/22 07:20:50;;;;;;;;;;;;;;;;;;5013633;28;19925;-59
2022/12/22 07:23:16;;;;;;;;;;;;;;;;;;5027126;28;19925;-62
2022/12/22 07:25:42;;;;;;;;;;;;;;;;;;5027529;28;20406;-59
2022/12/22 07:28:08;;;;;;;;;;;;;;;;;;5007748;28;19941;-61
2022/12/22 07:30:35;;;;;;;;;;;;;;;;;;5019379;28;19969;-60
2022/12/22 07:33:02;;;;;;;;;;;;;;;;;;4987917;28;19952;-56
2022/12/22 07:35:28;;;;;;;;;;;;;;;;;;5008926;28;19925;-62
2022/12/22 07:37:54;;;;;;;;;;;;;;;;;;5017492;28;20021;-58
2022/12/22 07:40:20;;;;;;;;;;;;;;;;;;4988285;28;20431;-63
2022/12/22 07:42:46;;;;;;;;;;;;;;;;;;5006197;28;19926;-61
2022/12/22 07:45:12;;;;;;;;;;;;;;;;;;4997869;28;19925;-54
2022/12/22 07:47:38;;;;;;;;;;;;;;;;;;4987247;28;19936;-61
2022/12/22 07:52:49;;;;;;;;;;;;;;;;;;5020075;28;19929;-63
2022/12/22 07:55:14;;;;;;;;;;;;;;;;;;5022558;28;19979;-64
2022/12/22 07:57:41;;;;;;;;;;;;;;;;;;5022684;28;19929;-60
2022/12/22 08:00:07;;;;;;;;;;;;;;;;;;5006415;28;19927;-64
2022/12/22 08:02:33;;;;;;;;;;;;;;;;;;5013120;28;19936;-54
2022/12/22 08:04:59;;;;;;;;;;;;;;;;;;5026668;28;20275;-55
2022/12/22 08:07:25;;;;;;;;;;;;;;;;;;5026091;28;19925;-57
2022/12/22 08:09:51;;;;;;;;;;;;;;;;;;5025475;28;19925;-62
2022/12/22 08:12:17;;;;;;;;;;;;;;;;;;5027486;28;19926;-58
2022/12/22 08:14:44;;;;;;;;;;;;;;;;;;5009562;28;20462;-63
2022/12/22 08:17:10;;;;;;;;;;;;;;;;;;5023721;28;19932;-62
2022/12/22 08:19:36;;;;;;;;;;;;;;;;;;4987467;28;19926;-62
2022/12/22 08:22:02;;;;;;;;;;;;;;;;;;4986674;28;19933;-60
2022/12/22 08:24:28;;;;;;;;;;;;;;;;;;4987141;28;20422;-59
2022/12/22 08:26:54;;;;;;;;;;;;;;;;;;5002460;28;19929;-63
2022/12/22 08:29:20;;;;;;;;;;;;;;;;;;5026423;28;20004;-59
2022/12/22 08:31:46;;;;;;;;;;;;;;;;;;5026011;28;20083;-52
2022/12/22 08:34:12;;;;;;;;;;;;;;;;;;5026757;28;20413;-63
2022/12/22 08:36:39;;;;;;;;;;;;;;;;;;5025591;28;19925;-58
2022/12/22 08:39:05;;;;;;;;;;;;;;;;;;5025987;28;19932;-60
2022/12/22 08:41:49;;;;;;;;;;;;;;;;;;5025509;28;19971;-63
2022/12/22 08:44:15;;;;;;;;;;;;;;;;;;5025657;28;19932;-63
2022/12/22 08:46:41;;;;;;;;;;;;;;;;;;5025962;28;19921;-62
2022/12/22 08:49:07;;;;;;;;;;;;;;;;;;5025593;28;20425;-56
2022/12/22 08:51:33;;;;;;;;;;;;;;;;;;5026194;28;19929;-63
2022/12/22 08:53:59;;;;;;;;;;;;;;;;;;5024624;28;20016;-55
2022/12/22 08:56:25;;;;;;;;;;;;;;;;;;5016222;28;20426;-57
2022/12/22 08:58:51;;;;;;;;;;;;;;;;;;5006023;28;19928;-62
2022/12/22 09:01:18;;;;;;;;;;;;;;;;;;5005263;28;22296;-57
2022/12/22 09:03:45;;;;;;;;;;;;;;;;;;5020180;28;20311;-63
2022/12/22 09:06:11;;;;;;;;;;;;;;;;;;5024690;28;19925;-59
2022/12/22 09:08:37;;;;;;;;;;;;;;;;;;5014084;28;20016;-61
2022/12/22 09:11:03;;;;;;;;;;;;;;;;;;5006145;28;20414;-62
2022/12/22 09:13:29;;;;;;;;;;;;;;;;;;5004768;28;20024;-57
2022/12/22 09:15:55;;;;;;;;;;;;;;;;;;5006787;28;19953;-63
2022/12/22 09:18:21;;;;;;;;;;;;;;;;;;5005011;28;20773;-62
2022/12/22 09:20:48;;;;;;;;;;;;;;;;;;5006428;28;19968;-63
2022/12/22 09:23:14;;;;;;;;;;;;;;;;;;5003999;28;19929;-58
2022/12/22 09:25:40;;;;;;;;;;;;;;;;;;5005127;28;20358;-60
2022/12/22 09:28:06;;;;;;;;;;;;;;;;;;5005036;28;20407;-62
2022/12/22 09:30:32;;;;;;;;;;;;;;;;;;5008092;28;19926;-58
2022/12/22 09:32:58;;;;;;;;;;;;;;;;;;5009655;28;19925;-62
2022/12/22 09:35:24;;;;;;;;;;;;;;;;;;4992091;28;20472;-53
2022/12/22 09:37:50;;;;;;;;;;;;;;;;;;5001533;28;19934;-58
2022/12/22 09:40:20;;;;;;;;;;;;;;;;;;4986230;28;19929;-56
2022/12/22 09:42:46;;;;;;;;;;;;;;;;;;5015385;28;19979;-55
2022/12/22 09:45:12;;;;;;;;;;;;;;;;;;5007344;28;19926;-63
2022/12/22 09:47:39;;;;;;;;;;;;;;;;;;5005313;28;20375;-58
2022/12/22 09:50:05;;;;;;;;;;;;;;;;;;5004886;28;19929;-56
2022/12/22 09:52:31;;;;;;;;;;;;;;;;;;5004194;28;20143;-62
2022/12/22 09:54:57;;;;;;;;;;;;;;;;;;5005398;28;19947;-59
2022/12/22 09:57:23;;;;;;;;;;;;;;;;;;5005868;28;20422;-61
2022/12/22 09:59:49;;;;;;;;;;;;;;;;;;5005359;28;19958;-61
2022/12/22 10:02:15;;;;;;;;;;;;;;;;;;5004841;28;19925;-62
2022/12/22 10:04:41;;;;;;;;;;;;;;;;;;5004890;28;20343;-57
2022/12/22 10:07:07;;;;;;;;;;;;;;;;;;5004437;28;20016;-63
2022/12/22 10:09:33;;;;;;;;;;;;;;;;;;5004598;28;19967;-62
2022/12/22 10:11:59;;;;;;;;;;;;;;;;;;5004928;28;20367;-57
2022/12/22 10:14:25;;;;;;;;;;;;;;;;;;5020860;28;19932;-59
2022/12/22 10:16:51;;;;;;;;;;;;;;;;;;5004297;28;19925;-63
2022/12/22 10:19:17;;;;;;;;;;;;;;;;;;4985564;28;19973;-61
2022/12/22 10:21:43;;;;;;;;;;;;;;;;;;5001129;28;19978;-55
2022/12/22 10:24:09;;;;;;;;;;;;;;;;;;5004782;28;19989;-63
2022/12/22 10:26:35;;;;;;;;;;;;;;;;;;5004509;28;20327;-60
2022/12/22 10:29:01;;;;;;;;;;;;;;;;;;5005712;28;19930;-58
2022/12/22 10:31:27;;;;;;;;;;;;;;;;;;5014612;28;19925;-62
2022/12/22 10:33:53;;;;;;;;;;;;;;;;;;5028199;28;20311;-63
2022/12/22 10:36:19;;;;;;;;;;;;;;;;;;5027861;28;19929;-58
2022/12/22 10:38:45;;;;;;;;;;;;;;;;;;5028161;28;19932;-59
2022/12/22 10:41:11;;;;;;;;;;;;;;;;;;5028724;28;19924;-62
2022/12/22 10:43:37;;;;;;;;;;;;;;;;;;5027592;28;19925;-58
2022/12/22 10:46:03;;;;;;;;;;;;;;;;;;5028748;28;20302;-63
2022/12/22 10:48:29;;;;;;;;;;;;;;;;;;5028275;28;20371;-56
2022/12/22 10:50:55;;;;;;;;;;;;;;;;;;5028375;28;19925;-57
2022/12/22 10:53:21;;;;;;;;;;;;;;;;;;5026926;28;19973;-58
2022/12/22 10:55:47;;;;;;;;;;;;;;;;;;5028013;28;20172;-57
2022/12/22 10:58:14;;;;;;;;;;;;;;;;;;5028119;28;19925;-61
2022/12/22 11:00:40;;;;;;;;;;;;;;;;;;5028335;28;20032;-60
2022/12/22 11:03:06;;;;;;;;;;;;;;;;;;5026445;28;19944;-63
2022/12/22 11:05:32;;;;;;;;;;;;;;;;;;5027079;28;19925;-61
2022/12/22 11:07:59;;;;;;;;;;;;;;;;;;5027527;28;19921;-54
2022/12/22 11:10:25;;;;;;;;;;;;;;;;;;5028722;28;19976;-63
2022/12/22 11:12:51;;;;;;;;;;;;;;;;;;5027409;28;19976;-53
2022/12/22 11:15:17;;;;;;;;;;;;;;;;;;5027636;28;20004;-59
2022/12/22 11:17:43;;;;;;;;;;;;;;;;;;5027764;28;19925;-57
2022/12/22 11:20:09;;;;;;;;;;;;;;;;;;5028046;28;19928;-60
2022/12/22 11:22:35;;;;;;;;;;;;;;;;;;5022012;28;20278;-59
2022/12/22 11:25:01;;;;;;;;;;;;;;;;;;5024792;28;20382;-58
2022/12/22 11:27:27;;;;;;;;;;;;;;;;;;5014463;28;19925;-62
2022/12/22 11:29:53;;;;;;;;;;;;;;;;;;5007883;28;19926;-61
2022/12/22 11:32:20;;;;;;;;;;;;;;;;;;4992972;28;19983;-59
2022/12/22 11:34:46;;;;;;;;;;;;;;;;;;5007782;28;20422;-58
2022/12/22 11:37:12;;;;;;;;;;;;;;;;;;5014591;28;19978;-63
2022/12/22 11:39:38;;;;;;;;;;;;;;;;;;5015944;28;19929;-58
2022/12/22 11:42:04;;;;;;;;;;;;;;;;;;4994210;28;19936;-61
2022/12/22 11:44:30;;;;;;;;;;;;;;;;;;4987238;28;20383;-59
2022/12/22 11:46:56;;;;;;;;;;;;;;;;;;4997462;28;20382;-58
2022/12/22 11:49:22;;;;;;;;;;;;;;;;;;5025594;28;19932;-63
2022/12/22 11:51:48;;;;;;;;;;;;;;;;;;5007322;28;19926;-62
2022/12/22 11:54:14;;;;;;;;;;;;;;;;;;5005083;28;20397;-61
2022/12/22 11:56:40;;;;;;;;;;;;;;;;;;5025856;28;19925;-56
2022/12/22 11:59:06;;;;;;;;;;;;;;;;;;5015910;28;20253;-63
2022/12/22 12:01:32;;;;;;;;;;;;;;;;;;5021691;28;20359;-57
2022/12/22 12:03:58;;;;;;;;;;;;;;;;;;5006200;28;20426;-61
2022/12/22 12:06:24;;;;;;;;;;;;;;;;;;4985085;28;19940;-61
2022/12/22 12:08:50;;;;;;;;;;;;;;;;;;5002565;28;20662;-63
2022/12/22 12:11:17;;;;;;;;;;;;;;;;;;5004948;28;19948;-59
2022/12/22 12:13:43;;;;;;;;;;;;;;;;;;5002569;28;19932;-63
2022/12/22 12:16:09;;;;;;;;;;;;;;;;;;5000039;28;19925;-59
2022/12/22 12:18:35;;;;;;;;;;;;;;;;;;5000575;28;19937;-60
2022/12/22 12:21:01;;;;;;;;;;;;;;;;;;5016547;28;19921;-63
2022/12/22 12:23:27;;;;;;;;;;;;;;;;;;5025743;28;20127;-56
2022/12/22 12:25:53;;;;;;;;;;;;;;;;;;5019950;28;20005;-61
2022/12/22 12:28:19;;;;;;;;;;;;;;;;;;5006626;28;20404;-59
2022/12/22 12:30:45;;;;;;;;;;;;;;;;;;5006128;28;19925;-59
2022/12/22 12:33:11;;;;;;;;;;;;;;;;;;5006320;28;19956;-63
2022/12/22 12:35:37;;;;;;;;;;;;;;;;;;5006213;28;19925;-58
2022/12/22 12:38:03;;;;;;;;;;;;;;;;;;5020727;28;19925;-64
2022/12/22 12:40:29;;;;;;;;;;;;;;;;;;5022961;28;19933;-62
2022/12/22 12:42:55;;;;;;;;;;;;;;;;;;5000297;28;19925;-57
2022/12/22 12:45:21;;;;;;;;;;;;;;;;;;4987120;28;19925;-56
2022/12/22 12:47:47;;;;;;;;;;;;;;;;;;5006243;28;20248;-62
2022/12/22 12:50:13;;;;;;;;;;;;;;;;;;5000429;28;19926;-57
2022/12/22 12:52:39;;;;;;;;;;;;;;;;;;4987048;28;19926;-65
2022/12/22 12:55:05;;;;;;;;;;;;;;;;;;5005402;28;19933;-62
2022/12/22 12:57:31;;;;;;;;;;;;;;;;;;5006022;28;19925;-59
2022/12/22 12:59:57;;;;;;;;;;;;;;;;;;5018111;28;20497;-59
2022/12/22 13:02:23;;;;;;;;;;;;;;;;;;4995822;28;19926;-63
2022/12/22 13:04:49;;;;;;;;;;;;;;;;;;4996514;28;21207;-61
2022/12/22 13:07:15;;;;;;;;;;;;;;;;;;5017367;28;19925;-60
2022/12/22 13:09:41;;;;;;;;;;;;;;;;;;5012386;28;20517;-63
2022/12/22 13:12:07;;;;;;;;;;;;;;;;;;5007112;28;20429;-63
2022/12/22 13:14:33;;;;;;;;;;;;;;;;;;5006071;28;19925;-59
2022/12/22 13:16:59;;;;;;;;;;;;;;;;;;5013106;28;19925;-58
2022/12/22 13:19:26;;;;;;;;;;;;;;;;;;5015736;28;20288;-60
2022/12/22 13:21:56;;;;;;;;;;;;;;;;;;5015612;28;20055;-61
2022/12/22 13:24:22;;;;;;;;;;;;;;;;;;5011460;28;19926;-63
2022/12/22 13:26:48;;;;;;;;;;;;;;;;;;5020721;28;19932;-62
2022/12/22 13:29:14;;;;;;;;;;;;;;;;;;5004487;28;19934;-61
2022/12/22 13:31:41;;;;;;;;;;;;;;;;;;5004406;28;19925;-55
2022/12/22 13:34:07;;;;;;;;;;;;;;;;;;4994315;28;20044;-64
2022/12/22 13:36:33;;;;;;;;;;;;;;;;;;4997688;28;20283;-59
2022/12/22 13:38:59;;;;;;;;;;;;;;;;;;4996355;28;20382;-53
2022/12/22 13:41:25;;;;;;;;;;;;;;;;;;4989425;28;19930;-59
2022/12/22 13:43:51;;;;;;;;;;;;;;;;;;4994086;28;19934;-63
2022/12/22 13:46:17;;;;;;;;;;;;;;;;;;4997333;28;19932;-62
2022/12/22 13:48:43;;;;;;;;;;;;;;;;;;4992244;28;19926;-59
2022/12/22 13:51:09;;;;;;;;;;;;;;;;;;4990957;28;19973;-61
2022/12/22 13:53:35;;;;;;;;;;;;;;;;;;4991124;28;20066;-64
2022/12/22 13:56:01;;;;;;;;;;;;;;;;;;4987418;28;19980;-65
2022/12/22 13:58:27;;;;;;;;;;;;;;;;;;4989324;28;19933;-55
2022/12/22 14:00:53;;;;;;;;;;;;;;;;;;4988526;28;19933;-59
2022/12/22 14:03:19;;;;;;;;;;;;;;;;;;4991238;28;19976;-61
2022/12/22 14:05:45;;;;;;;;;;;;;;;;;;4995467;28;19996;-59
2022/12/22 14:08:12;;;;;;;;;;;;;;;;;;4995754;28;19957;-60
2022/12/22 14:10:38;;;;;;;;;;;;;;;;;;4994337;28;19940;-62
2022/12/22 14:13:04;;;;;;;;;;;;;;;;;;4993394;28;20053;-59
2022/12/22 14:15:30;;;;;;;;;;;;;;;;;;4994830;28;20019;-61
2022/12/22 14:17:56;;;;;;;;;;;;;;;;;;4995164;28;19929;-60
2022/12/22 14:20:22;;;;;;;;;;;;;;;;;;5001707;28;19937;-60
2022/12/22 14:22:49;;;;;;;;;;;;;;;;;;4993172;28;19929;-56
2022/12/22 14:25:15;;;;;;;;;;;;;;;;;;4999555;28;19941;-61
2022/12/22 14:27:41;;;;;;;;;;;;;;;;;;5001106;28;20032;-55
2022/12/22 14:30:07;;;;;;;;;;;;;;;;;;5006062;28;20012;-60
2022/12/22 14:32:33;;;;;;;;;;;;;;;;;;5002737;28;19977;-58
2022/12/22 14:34:59;;;;;;;;;;;;;;;;;;5005356;28;19929;-61
2022/12/22 14:37:25;;;;;;;;;;;;;;;;;;5003714;28;20467;-61
2022/12/22 14:39:51;;;;;;;;;;;;;;;;;;5006512;28;19925;-63
2022/12/22 14:42:17;;;;;;;;;;;;;;;;;;5005183;28;20020;-58
2022/12/22 14:44:43;;;;;;;;;;;;;;;;;;4997676;28;19941;-53
2022/12/22 14:47:10;;;;;;;;;;;;;;;;;;5000083;28;19926;-61
2022/12/22 14:49:36;;;;;;;;;;;;;;;;;;5000831;28;19929;-60
2022/12/22 14:52:02;;;;;;;;;;;;;;;;;;5003755;28;19926;-61
2022/12/22 14:54:28;;;;;;;;;;;;;;;;;;5005755;28;20415;-57
2022/12/22 14:56:54;;;;;;;;;;;;;;;;;;5003774;28;20434;-57
2022/12/22 14:59:20;;;;;;;;;;;;;;;;;;5005769;28;19937;-60
2022/12/22 15:01:46;;;;;;;;;;;;;;;;;;5004128;28;19926;-58
2022/12/22 15:04:12;;;;;;;;;;;;;;;;;;5005444;28;19985;-60
2022/12/22 15:06:39;;;;;;;;;;;;;;;;;;5010548;28;19929;-61
2022/12/22 15:09:07;;;;;;;;;;;;;;;;;;5012593;28;19931;-56
2022/12/22 15:11:33;;;;;;;;;;;;;;;;;;5012319;28;19929;-61
2022/12/22 15:13:59;;;;;;;;;;;;;;;;;;5012694;28;19917;-59
2022/12/22 15:16:25;;;;;;;;;;;;;;;;;;5009561;28;19932;-61
2022/12/22 15:18:51;;;;;;;;;;;;;;;;;;5010355;28;20398;-60
2022/12/22 15:21:17;;;;;;;;;;;;;;;;;;5008174;28;19925;-58
2022/12/22 15:23:43;;;;;;;;;;;;;;;;;;5008326;28;20020;-60
2022/12/22 15:26:09;;;;;;;;;;;;;;;;;;5009126;28;19926;-60
2022/12/22 15:28:35;;;;;;;;;;;;;;;;;;5008880;28;20334;-53
2022/12/22 15:31:01;;;;;;;;;;;;;;;;;;5009139;28;20661;-57
2022/12/22 15:33:27;;;;;;;;;;;;;;;;;;5009461;28;19949;-58
2022/12/22 15:35:53;;;;;;;;;;;;;;;;;;5008209;28;20367;-61
2022/12/22 15:38:19;;;;;;;;;;;;;;;;;;5006539;28;20387;-63
2022/12/22 15:40:46;;;;;;;;;;;;;;;;;;5007381;28;19932;-61
2022/12/22 15:43:13;;;;;;;;;;;;;;;;;;5011041;28;19926;-57
2022/12/22 15:45:39;;;;;;;;;;;;;;;;;;5009814;28;19926;-60
2022/12/22 15:48:05;;;;;;;;;;;;;;;;;;5011751;28;20578;-60
2022/12/22 15:50:31;;;;;;;;;;;;;;;;;;5009486;28;19952;-60
2022/12/22 15:52:57;;;;;;;;;;;;;;;;;;5008855;28;19925;-60
2022/12/22 15:55:23;;;;;;;;;;;;;;;;;;5011749;28;19932;-60
2022/12/22 15:57:50;;;;;;;;;;;;;;;;;;5016611;28;19944;-55
2022/12/22 16:00:16;;;;;;;;;;;;;;;;;;5005585;28;19929;-61
2022/12/22 16:02:42;;;;;;;;;;;;;;;;;;5000719;28;19926;-60
2022/12/22 16:05:08;;;;;;;;;;;;;;;;;;4993130;28;20019;-59
2022/12/22 16:07:34;;;;;;;;;;;;;;;;;;4998028;28;19960;-62
2022/12/22 16:10:00;;;;;;;;;;;;;;;;;;5000251;28;20340;-62
2022/12/22 16:12:26;;;;;;;;;;;;;;;;;;4999913;28;19934;-63
2022/12/22 16:14:52;;;;;;;;;;;;;;;;;;4993933;28;19932;-55
2022/12/22 16:17:18;;;;;;;;;;;;;;;;;;5003936;28;19926;-59
2022/12/22 16:19:44;;;;;;;;;;;;;;;;;;5006067;28;20383;-58
2022/12/22 16:22:10;;;;;;;;;;;;;;;;;;5007288;28;19939;-63
2022/12/22 16:24:37;;;;;;;;;;;;;;;;;;5010026;28;19926;-62
2022/12/22 16:27:03;;;;;;;;;;;;;;;;;;5008130;28;20279;-55
2022/12/22 16:29:29;;;;;;;;;;;;;;;;;;5010243;28;20588;-53
2022/12/22 16:31:55;;;;;;;;;;;;;;;;;;5015181;28;19929;-61
2022/12/22 16:34:21;;;;;;;;;;;;;;;;;;5017450;28;20509;-63
2022/12/22 16:36:47;;;;;;;;;;;;;;;;;;5008224;28;19925;-61
2022/12/22 16:39:13;;;;;;;;;;;;;;;;;;5009499;28;20378;-62
2022/12/22 16:41:39;;;;;;;;;;;;;;;;;;5013666;28;20411;-61
2022/12/22 16:44:05;;;;;;;;;;;;;;;;;;5009664;28;19940;-61
2022/12/22 16:46:31;;;;;;;;;;;;;;;;;;5018073;28;20007;-62
2022/12/22 16:48:57;;;;;;;;;;;;;;;;;;5010280;28;19929;-58
2022/12/22 16:51:23;;;;;;;;;;;;;;;;;;5009129;28;20077;-58
2022/12/22 16:53:49;;;;;;;;;;;;;;;;;;5013342;28;19935;-60
2022/12/22 16:56:16;;;;;;;;;;;;;;;;;;5022328;28;20008;-62
2022/12/22 16:58:42;;;;;;;;;;;;;;;;;;5008586;28;19965;-62
2022/12/22 17:01:08;;;;;;;;;;;;;;;;;;5007593;28;19933;-52
2022/12/22 17:03:36;;;;;;;;;;;;;;;;;;5015977;28;19945;-62
2022/12/22 17:06:03;;;;;;;;;;;;;;;;;;5008177;28;19926;-62
2022/12/22 17:08:29;;;;;;;;;;;;;;;;;;5007397;28;19932;-58
2022/12/22 17:10:55;;;;;;;;;;;;;;;;;;5009372;28;19972;-61
2022/12/22 17:13:21;;;;;;;;;;;;;;;;;;5016373;28;19926;-62
2022/12/22 17:15:47;;;;;;;;;;;;;;;;;;5011181;28;19932;-54
2022/12/22 17:18:14;;;;;;;;;;;;;;;;;;5017406;28;19952;-59
2022/12/22 17:20:40;;;;;;;;;;;;;;;;;;5008256;28;20379;-60
2022/12/22 17:23:06;;;;;;;;;;;;;;;;;;5014907;28;19933;-62
2022/12/22 17:25:32;;;;;;;;;;;;;;;;;;5013019;28;19932;-58
2022/12/22 17:27:58;;;;;;;;;;;;;;;;;;5010960;28;19929;-62
2022/12/22 17:30:24;;;;;;;;;;;;;;;;;;5008306;28;20426;-61
2022/12/22 17:32:55;;;;;;;;;;;;;;;;;;5015352;28;19956;-57
2022/12/22 17:35:21;;;;;;;;;;;;;;;;;;5009529;28;19922;-62
2022/12/22 17:37:47;;;;;;;;;;;;;;;;;;5009224;28;19929;-56
2022/12/22 17:40:13;;;;;;;;;;;;;;;;;;5018167;28;20399;-61
2022/12/22 17:42:40;;;;;;;;;;;;;;;;;;5010973;28;19932;-59
2022/12/22 17:45:06;;;;;;;;;;;;;;;;;;5008607;28;19925;-62
2022/12/22 17:47:32;;;;;;;;;;;;;;;;;;5009950;28;19925;-60
2022/12/22 17:49:58;;;;;;;;;;;;;;;;;;5023392;28;19943;-60
2022/12/22 17:52:25;;;;;;;;;;;;;;;;;;5016542;28;19948;-62
2022/12/22 17:54:51;;;;;;;;;;;;;;;;;;5012785;28;19936;-61
2022/12/22 17:57:17;;;;;;;;;;;;;;;;;;5012678;28;19925;-59
2022/12/22 17:59:43;;;;;;;;;;;;;;;;;;5022618;28;19932;-61
2022/12/22 18:02:10;;;;;;;;;;;;;;;;;;5015735;28;19980;-58
2022/12/22 18:04:37;;;;;;;;;;;;;;;;;;5006630;28;19932;-56
2022/12/22 18:07:03;;;;;;;;;;;;;;;;;;5021631;28;19976;-62
2022/12/22 18:09:29;;;;;;;;;;;;;;;;;;5006916;28;19972;-55
2022/12/22 18:11:55;;;;;;;;;;;;;;;;;;5009729;28;20020;-59
2022/12/22 18:14:21;;;;;;;;;;;;;;;;;;5008504;28;19926;-59
2022/12/22 18:16:47;;;;;;;;;;;;;;;;;;5007552;28;20485;-61
2022/12/22 18:19:13;;;;;;;;;;;;;;;;;;5008097;28;20330;-60
2022/12/22 18:21:39;;;;;;;;;;;;;;;;;;5019856;28;20359;-60
2022/12/22 18:24:05;;;;;;;;;;;;;;;;;;5013559;28;19929;-61
2022/12/22 18:26:31;;;;;;;;;;;;;;;;;;5007629;28;20428;-50
2022/12/22 18:28:57;;;;;;;;;;;;;;;;;;5017232;28;20414;-61
2022/12/22 18:31:23;;;;;;;;;;;;;;;;;;5015364;28;19925;-57
2022/12/22 18:33:49;;;;;;;;;;;;;;;;;;5014354;28;19929;-61
2022/12/22 18:36:15;;;;;;;;;;;;;;;;;;5007522;28;19959;-59
2022/12/22 18:38:41;;;;;;;;;;;;;;;;;;5007063;28;19932;-56
2022/12/22 18:41:07;;;;;;;;;;;;;;;;;;5018372;28;19931;-60
2022/12/22 18:43:33;;;;;;;;;;;;;;;;;;5011567;28;19983;-61
2022/12/22 18:45:59;;;;;;;;;;;;;;;;;;5016260;28;20502;-58
2022/12/22 18:48:25;;;;;;;;;;;;;;;;;;5005825;28;20024;-62
2022/12/22 18:50:51;;;;;;;;;;;;;;;;;;5010526;28;20427;-60
2022/12/22 18:53:17;;;;;;;;;;;;;;;;;;5008072;28;19925;-60
2022/12/22 18:55:44;;;;;;;;;;;;;;;;;;5009262;28;19948;-60
2022/12/22 18:58:10;;;;;;;;;;;;;;;;;;5009530;28;20558;-62
2022/12/22 19:00:36;;;;;;;;;;;;;;;;;;5010091;28;19932;-50
2022/12/22 19:03:02;;;;;;;;;;;;;;;;;;5009135;28;20030;-60
2022/12/22 19:05:28;;;;;;;;;;;;;;;;;;5015425;28;20008;-63
2022/12/22 19:07:54;;;;;;;;;;;;;;;;;;5010738;28;19932;-59
2022/12/22 19:10:20;;;;;;;;;;;;;;;;;;5018224;28;19933;-60
2022/12/22 19:12:46;;;;;;;;;;;;;;;;;;5019028;28;19987;-59
2022/12/22 19:15:12;;;;;;;;;;;;;;;;;;5010746;28;19983;-59
2022/12/22 19:17:38;;;;;;;;;;;;;;;;;;5000989;28;19975;-59
2022/12/22 19:20:04;;;;;;;;;;;;;;;;;;5001669;28;19972;-61
2022/12/22 19:22:30;;;;;;;;;;;;;;;;;;4997149;28;19977;-61
2022/12/22 19:24:57;;;;;;;;;;;;;;;;;;4998371;28;19932;-58
2022/12/22 19:27:23;;;;;;;;;;;;;;;;;;4999319;28;19952;-58
2022/12/22 19:29:49;;;;;;;;;;;;;;;;;;4996911;28;20016;-61
2022/12/22 19:32:15;;;;;;;;;;;;;;;;;;4999194;28;19933;-61
2022/12/22 19:34:41;;;;;;;;;;;;;;;;;;5001874;28;19941;-61
2022/12/22 19:37:07;;;;;;;;;;;;;;;;;;4994905;28;19929;-60
2022/12/22 19:39:33;;;;;;;;;;;;;;;;;;4995447;28;20028;-60
2022/12/22 19:42:00;;;;;;;;;;;;;;;;;;4999202;28;19926;-60
2022/12/22 19:44:26;;;;;;;;;;;;;;;;;;5004383;28;19932;-53
2022/12/22 19:46:52;;;;;;;;;;;;;;;;;;4999665;28;19925;-61
2022/12/22 19:49:18;;;;;;;;;;;;;;;;;;4999783;28;19953;-57
2022/12/22 19:51:44;;;;;;;;;;;;;;;;;;5003933;28;20873;-57
2022/12/22 19:54:10;;;;;;;;;;;;;;;;;;5006264;28;19937;-61
2022/12/22 19:56:36;;;;;;;;;;;;;;;;;;5004176;28;19956;-60
2022/12/22 19:59:02;;;;;;;;;;;;;;;;;;5003821;28;19929;-59
2022/12/22 20:01:28;;;;;;;;;;;;;;;;;;5005213;28;19929;-58
2022/12/22 20:03:55;;;;;;;;;;;;;;;;;;5005296;28;19929;-58
2022/12/22 20:06:21;;;;;;;;;;;;;;;;;;5003450;28;20427;-59
2022/12/22 20:08:47;;;;;;;;;;;;;;;;;;5002707;28;19932;-56
2022/12/22 20:11:13;;;;;;;;;;;;;;;;;;5005135;28;19940;-59
2022/12/22 20:13:39;;;;;;;;;;;;;;;;;;4998820;28;19929;-59
2022/12/22 20:16:05;;;;;;;;;;;;;;;;;;5000303;28;19969;-60